Time;durP1;ratioP1;P1;durP2;ratioP2;P2;SDS_P1;SDS_P2;PMS_P1;PMS_P2;Temp;Humidity;BMP_temperature;BMP_pressure;BME280_temperature;BME280_humidity;BME280_pressure;Samples;Min_cycle;Max_cycle;Signal;HPM_P1;HPM_P2
2022/06/08 00:00:17;;;;;;;;;;;25.30;67.40;;;;;;5154686;27;19925;-72
2022/06/08 00:02:47;;;;;;;3.92;1.45;;;25.30;67.40;;;;;;5154085;27;19926;-70
2022/06/08 00:05:13;;;;;;;5.82;1.90;;;25.30;67.20;;;;;;5153947;27;20071;-70
2022/06/08 00:07:39;;;;;;;;;;;25.40;67.60;;;;;;5154038;27;20352;-71
2022/06/08 00:10:07;;;;;;;;;;;25.40;65.80;;;;;;5154296;27;19967;-70
2022/06/08 00:12:34;;;;;;;;;;;25.40;65.60;;;;;;5154624;27;19904;-70
2022/06/08 00:14:59;;;;;;;;;;;25.40;64.10;;;;;;5154191;27;19903;-70
2022/06/08 00:17:26;;;;;;;;;;;25.40;64.50;;;;;;5154426;27;19905;-71
2022/06/08 00:19:52;;;;;;;;;;;25.30;67.10;;;;;;5154172;27;19983;-71
2022/06/08 00:22:18;;;;;;;;;;;25.10;67.80;;;;;;5154177;27;19957;-71
2022/06/08 00:24:45;;;;;;;;;;;24.90;68.90;;;;;;5154173;27;19903;-71
2022/06/08 00:27:12;;;;;;;;;;;24.80;69.40;;;;;;5154135;27;20353;-71
2022/06/08 00:29:38;;;;;;;;;;;24.70;69.40;;;;;;5153884;27;19985;-70
2022/06/08 00:32:04;;;;;;;;;;;24.70;69.50;;;;;;5154027;27;20385;-71
2022/06/08 00:34:36;;;;;;;;;;;24.60;69.10;;;;;;5153996;27;20400;-71
2022/06/08 00:37:02;;;;;;;;;;;24.60;69.10;;;;;;5153874;27;19960;-70
2022/06/08 00:39:28;;;;;;;;;;;24.60;68.50;;;;;;5153836;27;19937;-71
2022/06/08 00:41:55;;;;;;;;;;;24.60;67.70;;;;;;5154043;27;19907;-70
2022/06/08 00:44:27;;;;;;;;;;;24.70;67.00;;;;;;5154131;27;20006;-71
2022/06/08 00:46:54;;;;;;;;;;;24.80;66.40;;;;;;5153767;27;19926;-71
2022/06/08 00:49:23;;;;;;;;;;;24.80;66.10;;;;;;5154216;27;19994;-70
2022/06/08 00:51:50;;;;;;;;;;;24.80;66.30;;;;;;5153821;27;19910;-70
2022/06/08 00:54:36;;;;;;;;;;;24.80;66.50;;;;;;5153695;27;19911;-70
2022/06/08 00:57:13;;;;;;;;;;;24.90;66.50;;;;;;5153784;27;19903;-72
2022/06/08 00:59:43;;;;;;;;;;;24.90;65.80;;;;;;5153318;27;19903;-71
2022/06/08 01:02:09;;;;;;;;;;;24.90;65.40;;;;;;5153952;27;19935;-71
2022/06/08 01:04:35;;;;;;;;;;;24.90;65.20;;;;;;5153711;27;19928;-72
2022/06/08 01:07:01;;;;;;;;;;;24.90;64.90;;;;;;5153691;27;20259;-71
2022/06/08 01:09:32;;;;;;;;;;;24.90;64.00;;;;;;5154074;27;19903;-72
2022/06/08 01:12:03;;;;;;;;;;;24.90;63.60;;;;;;5154027;27;19944;-71
2022/06/08 01:14:29;;;;;;;;;;;24.90;62.80;;;;;;5154248;27;19907;-71
2022/06/08 01:17:15;;;;;;;;;;;24.90;63.00;;;;;;5153523;27;19910;-71
2022/06/08 01:19:44;;;;;;;;;;;24.90;62.50;;;;;;5153116;27;20377;-72
2022/06/08 01:22:11;;;;;;;;;;;24.90;61.90;;;;;;5153635;27;19948;-72
2022/06/08 01:24:37;;;;;;;;;;;24.90;61.80;;;;;;5153179;27;19907;-72
2022/06/08 01:27:12;;;;;;;;;;;24.90;61.80;;;;;;5153271;27;20005;-71
2022/06/08 01:29:41;;;;;;;;;;;24.90;62.30;;;;;;5153314;27;19907;-71
2022/06/08 01:32:22;;;;;;;;;;;24.90;62.70;;;;;;5153810;27;19907;-71
2022/06/08 01:35:02;;;;;;;;;;;24.90;63.10;;;;;;5153636;27;19909;-71
2022/06/08 01:37:45;;;;;;;;;;;24.90;63.60;;;;;;5153531;27;20375;-71
2022/06/08 01:40:30;;;;;;;;;;;24.90;64.30;;;;;;5153610;27;20066;-71
2022/06/08 01:43:15;;;;;;;;;;;24.90;64.30;;;;;;5153572;27;19943;-71
2022/06/08 01:45:59;;;;;;;;;;;24.90;64.70;;;;;;5153170;27;19903;-71
2022/06/08 01:48:38;;;;;;;;;;;24.90;64.80;;;;;;5153606;27;20108;-71
2022/06/08 01:51:03;;;;;;;;;;;24.90;64.70;;;;;;5154882;27;19914;-71
2022/06/08 01:53:32;;;;;;;;;;;24.90;64.50;;;;;;5157079;27;19907;-71
2022/06/08 01:56:11;;;;;;;;;;;24.90;64.10;;;;;;5157371;27;19903;-72
2022/06/08 01:58:36;;;;;;;;;;;24.90;64.70;;;;;;5157041;27;19965;-71
2022/06/08 02:01:05;;;;;;;;;;;24.80;64.30;;;;;;5156728;27;19978;-71
2022/06/08 02:03:34;;;;;;;;;;;24.80;65.30;;;;;;5156840;27;19975;-71
2022/06/08 02:06:16;;;;;;;;;;;24.80;65.20;;;;;;5156668;27;19948;-71
2022/06/08 02:09:04;;;;;;;;;;;24.80;66.30;;;;;;5157095;27;19910;-71
2022/06/08 02:11:30;;;;;;;;;;;24.80;65.70;;;;;;5156899;27;19926;-70
2022/06/08 02:13:57;;;;;;;;;;;24.70;65.80;;;;;;5156520;27;20358;-71
2022/06/08 02:16:34;;;;;;;;;;;24.70;66.00;;;;;;5156377;27;19951;-70
2022/06/08 02:19:08;;;;;;;;;;;24.70;66.10;;;;;;5156333;27;19917;-71
2022/06/08 02:21:44;;;;;;;;;;;24.60;66.10;;;;;;5156643;27;19947;-71
2022/06/08 02:24:13;;;;;;;;;;;24.60;65.80;;;;;;5156481;27;19903;-71
2022/06/08 02:26:41;;;;;;;;;;;24.60;65.90;;;;;;5155953;27;20350;-70
2022/06/08 02:29:13;;;;;;;;;;;24.50;65.80;;;;;;5156243;27;20342;-71
2022/06/08 02:31:45;;;;;;;;;;;24.60;65.80;;;;;;5155988;27;19903;-71
2022/06/08 02:34:29;;;;;;;;;;;24.50;66.00;;;;;;5156008;27;20445;-71
2022/06/08 02:36:58;;;;;;;;;;;24.60;65.40;;;;;;5156061;27;19919;-71
2022/06/08 02:39:28;;;;;;;;;;;24.50;65.50;;;;;;5155765;27;19944;-71
2022/06/08 02:41:55;;;;;;;;;;;24.50;65.30;;;;;;5156193;27;19910;-71
2022/06/08 02:44:24;;;;;;;;;;;24.50;65.20;;;;;;5155763;27;19997;-71
2022/06/08 03:03:52;;;;;;;3.50;1.20;;;24.40;64.80;;;;;;5150678;27;20882;-74
2022/06/08 03:06:23;;;;;;;2.67;1.25;;;24.60;64.90;;;;;;5151016;27;20042;-75
2022/06/08 03:08:57;;;;;;;4.30;1.30;;;24.50;65.20;;;;;;5150576;27;20110;-75
2022/06/08 03:11:26;;;;;;;5.63;1.50;;;24.50;65.00;;;;;;5151439;27;20436;-75
2022/06/08 03:13:59;;;;;;;3.47;1.23;;;24.50;64.60;;;;;;5151080;27;20057;-76
2022/06/08 03:16:39;;;;;;;4.07;1.40;;;24.50;65.20;;;;;;5151006;27;20023;-76
2022/06/08 03:19:06;;;;;;;3.20;1.30;;;24.40;65.60;;;;;;5151358;27;20015;-76
2022/06/08 03:21:32;;;;;;;5.28;1.52;;;24.40;65.60;;;;;;5151351;27;20098;-76
2022/06/08 03:23:59;;;;;;;4.22;1.35;;;24.40;65.20;;;;;;5151200;27;20027;-76
2022/06/08 03:26:27;;;;;;;4.10;1.17;;;24.30;65.40;;;;;;5150782;27;20098;-76
2022/06/08 03:28:54;;;;;;;6.13;1.77;;;24.30;65.50;;;;;;5151406;27;20106;-76
2022/06/08 03:31:20;;;;;;;3.92;1.30;;;24.20;66.20;;;;;;5151178;27;20110;-76
2022/06/08 03:33:46;;;;;;;4.18;1.50;;;24.20;65.90;;;;;;5150993;27;20069;-76
2022/06/08 03:36:13;;;;;;;6.45;1.52;;;24.20;66.00;;;;;;5151196;27;20386;-76
2022/06/08 03:38:41;;;;;;;6.40;1.30;;;24.20;66.00;;;;;;5150883;27;20026;-76
2022/06/08 03:41:07;;;;;;;7.50;1.52;;;24.20;66.00;;;;;;5150960;27;20051;-76
2022/06/08 03:43:33;;;;;;;4.68;1.50;;;24.20;65.70;;;;;;5150902;27;20034;-75
2022/06/08 03:46:03;;;;;;;6.13;1.38;;;24.20;65.70;;;;;;5151323;27;20392;-76
2022/06/08 03:48:29;;;;;;;5.80;1.52;;;24.20;66.00;;;;;;5150558;27;20542;-77
2022/06/08 03:50:58;;;;;;;4.70;1.58;;;24.20;66.00;;;;;;5150463;27;20015;-76
2022/06/08 03:53:37;;;;;;;6.00;1.35;;;24.30;65.30;;;;;;5150582;27;20068;-73
2022/06/08 03:56:06;;;;;;;3.08;1.15;;;24.30;65.70;;;;;;5150921;27;20019;-75
2022/06/08 03:58:33;;;;;;;3.88;1.33;;;24.30;65.20;;;;;;5150525;27;20031;-74
2022/06/08 04:00:59;;;;;;;4.75;1.20;;;24.40;64.90;;;;;;5131713;27;20019;-76
2022/06/08 04:03:26;;;;;;;6.60;1.50;;;24.40;65.00;;;;;;5143356;27;20082;-74
2022/06/08 04:05:52;;;;;;;2.63;1.17;;;24.30;65.20;;;;;;5136879;27;20023;-76
2022/06/08 04:08:18;;;;;;;4.68;1.42;;;24.20;65.30;;;;;;5136848;27;20023;-75
2022/06/08 04:10:44;;;;;;;4.22;1.50;;;24.20;65.20;;;;;;5136303;27;20105;-75
2022/06/08 04:13:11;;;;;;;5.72;1.20;;;24.30;65.20;;;;;;5136542;27;20174;-75
2022/06/08 04:15:43;;;;;;;5.13;1.58;;;24.20;65.30;;;;;;5117707;27;20382;-75
2022/06/08 04:18:17;;;;;;;4.75;1.20;;;24.30;65.50;;;;;;5137269;27;20030;-75
2022/06/08 04:20:46;;;;;;;3.97;1.30;;;24.30;65.40;;;;;;5118922;27;20336;-76
2022/06/08 04:23:13;;;;;;;5.15;1.50;;;24.40;65.00;;;;;;5136530;27;20442;-75
2022/06/08 04:25:41;;;;;;;4.40;1.38;;;24.50;64.90;;;;;;5136378;27;20531;-75
2022/06/08 04:28:07;;;;;;;5.30;1.50;;;24.60;65.50;;;;;;5136214;27;20023;-76
2022/06/08 04:30:34;;;;;;;6.30;1.20;;;24.60;64.60;;;;;;5117887;27;20445;-75
2022/06/08 04:33:00;;;;;;;;;;;24.70;64.50;;;;;;5137099;27;20352;-76
2022/06/08 04:35:27;;;;;;;5.32;1.30;;;24.80;64.40;;;;;;5136487;27;19910;-75
2022/06/08 04:37:54;;;;;;;3.78;1.23;;;24.90;64.10;;;;;;5136471;27;20027;-74
2022/06/08 04:40:22;;;;;;;4.05;1.10;;;24.90;63.80;;;;;;5136188;27;20019;-76
2022/06/08 04:42:48;;;;;;;5.85;1.35;;;25.00;63.40;;;;;;5136019;27;20528;-75
2022/06/08 04:45:15;;;;;;;;;;;25.20;63.30;;;;;;5136448;27;20110;-75
2022/06/08 04:47:40;;;;;;;;;;;25.20;62.90;;;;;;5136287;27;20274;-76
2022/06/08 04:50:08;;;;;;;7.35;2.17;;;25.30;63.40;;;;;;5135729;27;19903;-76
2022/06/08 04:52:35;;;;;;;7.85;1.50;;;25.40;62.70;;;;;;5117274;27;20039;-74
2022/06/08 04:55:02;;;;;;;5.88;1.50;;;25.50;62.70;;;;;;5135939;27;20023;-76
2022/06/08 04:57:30;;;;;;;5.60;1.42;;;25.50;62.30;;;;;;5135724;27;20543;-75
2022/06/08 04:59:56;;;;;;;6.15;1.27;;;25.60;62.30;;;;;;5136178;27;20077;-75
2022/06/08 05:05:08;;;;;;;2.83;1.23;;;25.80;61.90;;;;;;5135518;27;19961;-75
2022/06/08 05:07:35;;;;;;;2.75;1.20;;;26.10;61.50;;;;;;5135139;27;20019;-74
2022/06/08 05:10:01;;;;;;;5.32;1.40;;;26.30;60.80;;;;;;5135329;27;20032;-76
2022/06/08 05:12:27;;;;;;;2.53;1.30;;;26.50;60.50;;;;;;5135124;27;20031;-75
2022/06/08 05:14:53;;;;;;;4.80;1.40;;;26.50;60.90;;;;;;5134567;27;20362;-76
2022/06/08 05:17:19;;;;;;;7.60;1.50;;;26.60;60.40;;;;;;5117442;27;20023;-75
2022/06/08 05:19:45;;;;;;;4.03;1.40;;;26.70;60.10;;;;;;5135441;27;20110;-75
2022/06/08 05:22:11;;;;;;;3.67;1.50;;;26.60;60.60;;;;;;5117078;27;20403;-76
2022/06/08 05:24:37;;;;;;;5.47;1.30;;;26.60;60.70;;;;;;5135308;27;20056;-77
2022/06/08 05:27:04;;;;;;;4.75;1.42;;;26.60;60.60;;;;;;5135434;27;20058;-75
2022/06/08 05:29:30;;;;;;;3.63;1.17;;;26.70;60.40;;;;;;5135128;27;20026;-75
2022/06/08 05:31:56;;;;;;;3.10;1.20;;;26.90;59.70;;;;;;5134372;27;20106;-75
2022/06/08 05:34:22;;;;;;;5.95;1.83;;;27.00;59.60;;;;;;5134156;27;20467;-75
2022/06/08 05:36:48;;;;;;;9.95;1.50;;;27.20;59.60;;;;;;5134125;27;20019;-75
2022/06/08 05:39:14;;;;;;;7.38;1.45;;;27.40;59.30;;;;;;5133878;27;20031;-76
2022/06/08 05:41:40;;;;;;;7.45;1.40;;;27.50;59.20;;;;;;5133647;27;20023;-75
2022/06/08 05:44:06;;;;;;;6.25;1.30;;;27.60;59.00;;;;;;5134430;27;20080;-76
2022/06/08 05:46:32;;;;;;;5.95;1.38;;;28.00;58.30;;;;;;5134340;27;20042;-77
2022/06/08 05:48:59;;;;;;;3.63;1.30;;;28.30;58.30;;;;;;5133720;27;20370;-77
2022/06/08 05:51:25;;;;;;;3.70;1.20;;;28.80;57.60;;;;;;5133193;27;20064;-77
2022/06/08 05:53:51;;;;;;;4.88;1.45;;;29.60;56.60;;;;;;5133481;27;20516;-76
2022/06/08 05:56:17;;;;;;;8.15;1.50;;;30.30;55.70;;;;;;5133363;27;20106;-75
2022/06/08 05:58:43;;;;;;;5.93;1.35;;;30.90;54.50;;;;;;5132549;27;20355;-76
2022/06/08 06:01:09;;;;;;;10.40;1.70;;;32.00;53.80;;;;;;5114414;27;20169;-77
2022/06/08 06:03:35;;;;;;;5.38;1.30;;;32.60;52.40;;;;;;5132397;27;20043;-76
2022/06/08 06:06:01;;;;;;;8.82;1.52;;;32.60;52.20;;;;;;5114249;27;20023;-77
2022/06/08 06:08:28;;;;;;;7.85;1.70;;;32.50;51.90;;;;;;5113837;27;20076;-75
2022/06/08 06:10:54;;;;;;;8.95;1.40;;;32.70;51.80;;;;;;5113474;27;20149;-75
2022/06/08 06:13:20;;;;;;;;;;;33.70;50.70;;;;;;5133094;27;20031;-75
2022/06/08 06:15:47;;;;;;;4.88;1.70;;;34.50;49.80;;;;;;5132570;27;19910;-76
2022/06/08 06:18:15;;;;;;;6.80;1.45;;;34.80;49.60;;;;;;5132950;27;20041;-75
2022/06/08 06:20:41;;;;;;;8.82;1.38;;;36.00;47.60;;;;;;5114827;27;20110;-76
2022/06/08 06:23:08;;;;;;;3.28;1.10;;;36.40;47.30;;;;;;5114521;27;20558;-75
2022/06/08 06:25:34;;;;;;;7.70;1.17;;;36.90;46.60;;;;;;5133345;27;20500;-75
2022/06/08 06:28:00;;;;;;;7.82;1.30;;;36.40;46.50;;;;;;5133178;27;20497;-75
2022/06/08 06:30:27;;;;;;;12.20;1.83;;;36.40;46.40;;;;;;5133191;27;20095;-76
2022/06/08 06:32:53;;;;;;;5.38;1.30;;;36.30;46.20;;;;;;5133139;27;20042;-76
2022/06/08 06:35:22;;;;;;;4.25;1.40;;;36.00;46.60;;;;;;5133344;27;20023;-76
2022/06/08 06:37:50;;;;;;;3.47;1.33;;;35.90;47.20;;;;;;5133170;27;20027;-75
2022/06/08 06:40:16;;;;;;;3.03;1.00;;;35.70;47.40;;;;;;5133255;27;20024;-75
2022/06/08 06:42:42;;;;;;;2.47;1.00;;;37.40;45.80;;;;;;5114707;28;20130;-75
2022/06/08 06:45:09;;;;;;;4.45;2.15;;;38.30;43.80;;;;;;5133648;27;20065;-76
2022/06/08 06:47:35;;;;;;;4.80;1.38;;;39.10;44.10;;;;;;5133003;27;20047;-76
2022/06/08 06:50:04;;;;;;;3.83;1.00;;;40.20;43.20;;;;;;5133554;28;20408;-77
2022/06/08 06:52:30;;;;;;;4.85;1.00;;;40.80;42.00;;;;;;5132816;28;20059;-77
2022/06/08 06:54:56;;;;;;;3.35;1.00;;;42.30;41.00;;;;;;5133081;28;20067;-77
2022/06/08 06:57:22;;;;;;;4.70;1.08;;;41.40;40.20;;;;;;5133414;28;20026;-78
2022/06/08 06:59:48;;;;;;;7.22;1.10;;;42.40;40.20;;;;;;5132953;28;20030;-77
2022/06/08 07:02:17;;;;;;;5.30;1.10;;;42.70;39.10;;;;;;5132984;28;20050;-77
2022/06/08 07:04:44;;;;;;;9.23;1.52;;;42.80;39.60;;;;;;5133076;28;20030;-77
2022/06/08 07:07:10;;;;;;;8.57;1.60;;;43.10;41.30;;;;;;5133087;28;20039;-78
2022/06/08 07:09:37;;;;;;;6.22;1.77;;;43.50;41.70;;;;;;5133172;28;20103;-76
2022/06/08 07:12:04;;;;;;;5.72;1.25;;;43.50;41.30;;;;;;5132892;28;20034;-77
2022/06/08 07:14:31;;;;;;;6.57;1.33;;;43.10;40.80;;;;;;5132963;28;20129;-76
2022/06/08 07:16:57;;;;;;;8.30;1.58;;;43.00;41.30;;;;;;5114068;28;20381;-79
2022/06/08 07:19:23;;;;;;;9.55;1.58;;;42.70;41.60;;;;;;5133050;28;20031;-78
2022/06/08 07:21:50;;;;;;;11.38;1.83;;;42.10;41.90;;;;;;5114423;28;20080;-76
2022/06/08 07:24:30;;;;;;;5.70;1.70;;;41.30;42.70;;;;;;5133074;28;20122;-76
2022/06/08 07:26:56;;;;;;;9.27;1.70;;;40.70;43.20;;;;;;5133413;28;20067;-76
2022/06/08 07:29:22;;;;;;;7.97;1.45;;;39.50;44.50;;;;;;5133346;28;20042;-77
2022/06/08 07:31:48;;;;;;;9.82;2.00;;;38.80;45.70;;;;;;5132584;28;20019;-77
2022/06/08 07:34:15;;;;;;;16.17;2.50;;;38.50;46.60;;;;;;5133086;28;20085;-76
2022/06/08 07:36:46;;;;;;;10.15;2.33;;;38.30;47.00;;;;;;5132802;28;20097;-76
2022/06/08 07:39:15;;;;;;;4.75;1.40;;;37.90;48.00;;;;;;5134897;27;20034;-77
2022/06/08 07:41:43;;;;;;;6.50;1.35;;;37.10;47.40;;;;;;5136260;27;20479;-77
2022/06/08 07:44:09;;;;;;;6.20;1.23;;;36.80;47.30;;;;;;5136350;27;20031;-77
2022/06/08 07:46:35;;;;;;;8.85;1.65;;;36.00;47.90;;;;;;5135964;27;20031;-76
2022/06/08 07:52:13;;;;;;;9.60;1.90;;;34.70;48.60;;;;;;5135799;27;20066;-77
2022/06/08 07:54:41;;;;;;;5.38;1.40;;;34.70;49.50;;;;;;5135441;27;20117;-78
2022/06/08 07:57:20;;;;;;;6.82;1.30;;;34.20;49.30;;;;;;5117086;27;20466;-78
2022/06/08 07:59:47;;;;;;;5.90;1.35;;;34.40;48.90;;;;;;5136028;27;20015;-78
2022/06/08 08:02:14;;;;;;;8.00;1.55;;;34.20;50.00;;;;;;5135387;27;20487;-76
2022/06/08 08:04:40;;;;;;;5.68;1.40;;;34.10;49.60;;;;;;5135591;27;20050;-76
2022/06/08 08:07:07;;;;;;;3.70;1.30;;;34.10;49.80;;;;;;5135515;27;20447;-76
2022/06/08 08:09:33;;;;;;;6.53;1.80;;;34.20;50.50;;;;;;5134962;27;20094;-77
2022/06/08 08:12:00;;;;;;;7.30;1.65;;;34.50;50.80;;;;;;5135288;27;20027;-76
2022/06/08 08:14:27;;;;;;;7.05;1.42;;;35.00;50.00;;;;;;5116553;27;20550;-76
2022/06/08 08:16:54;;;;;;;6.25;1.75;;;35.20;49.80;;;;;;5116742;27;20406;-76
2022/06/08 08:19:23;;;;;;;8.50;1.55;;;35.40;50.10;;;;;;5135391;27;20106;-77
2022/06/08 08:21:50;;;;;;;9.73;1.45;;;35.60;48.70;;;;;;5117072;27;20089;-76
2022/06/08 08:24:17;;;;;;;7.20;1.90;;;35.60;48.30;;;;;;5135674;27;20038;-76
2022/06/08 08:26:45;;;;;;;7.20;1.20;;;35.70;48.30;;;;;;5135808;27;20030;-75
2022/06/08 08:29:13;;;;;;;8.38;1.55;;;35.60;47.70;;;;;;5135929;27;20038;-76
2022/06/08 08:31:40;;;;;;;9.90;2.00;;;35.60;47.70;;;;;;5135288;27;20023;-75
2022/06/08 08:34:06;;;;;;;7.78;2.33;;;35.60;48.30;;;;;;5135677;27;20039;-75
2022/06/08 08:36:32;;;;;;;5.55;1.92;;;35.20;48.40;;;;;;5136083;27;20020;-76
2022/06/08 08:38:59;;;;;;;3.55;1.20;;;35.60;48.20;;;;;;5135316;27;20498;-76
2022/06/08 08:44:38;;;;;;;5.50;1.10;;;35.30;48.10;;;;;;5135566;27;20436;-76
2022/06/08 08:47:29;;;;;;;5.93;1.92;;;34.80;47.20;;;;;;5135440;27;20023;-77
2022/06/08 08:50:18;;;;;;;5.47;1.33;;;34.50;48.70;;;;;;5135328;27;20027;-76
2022/06/08 08:52:56;;;;;;;8.43;1.25;;;34.40;48.60;;;;;;5134817;27;20463;-76
2022/06/08 08:55:39;;;;;;;10.93;1.65;;;34.10;48.60;;;;;;5135157;27;20098;-77
2022/06/08 08:58:11;;;;;;;7.45;1.30;;;34.20;49.30;;;;;;5134982;27;20023;-78
2022/06/08 09:00:41;;;;;;;3.20;1.20;;;34.10;48.90;;;;;;5134534;27;20037;-77
2022/06/08 09:03:22;;;;;;;5.03;1.30;;;34.20;49.50;;;;;;5134293;27;20049;-78
2022/06/08 09:05:52;;;;;;;10.85;2.70;;;34.30;49.80;;;;;;5135011;27;20030;-76
2022/06/08 09:08:21;;;;;;;14.05;2.00;;;34.40;49.70;;;;;;5134867;27;20104;-77
2022/06/08 09:10:48;;;;;;;5.60;1.95;;;34.40;48.90;;;;;;5134890;27;20034;-76
2022/06/08 09:13:22;;;;;;;3.00;1.10;;;34.50;49.10;;;;;;5134099;27;20027;-76
2022/06/08 09:15:50;;;;;;;8.30;1.92;;;34.50;48.70;;;;;;5134711;27;20019;-75
2022/06/08 09:18:36;;;;;;;10.75;2.17;;;34.30;49.80;;;;;;5133965;27;20027;-77
2022/06/08 09:21:21;;;;;;;10.25;2.20;;;34.40;50.10;;;;;;5134505;27;20019;-75
2022/06/08 09:23:52;;;;;;;5.22;1.83;;;34.20;49.20;;;;;;5134213;27;20057;-76
2022/06/08 09:26:24;;;;;;;5.85;2.40;;;34.20;49.50;;;;;;5116487;27;20023;-76
2022/06/08 09:28:59;;;;;;;9.43;1.70;;;34.10;49.80;;;;;;5134403;27;20027;-75
2022/06/08 09:31:29;;;;;;;6.95;1.80;;;33.80;50.80;;;;;;5134506;27;20111;-75
2022/06/08 09:34:15;;;;;;;6.45;1.40;;;33.80;51.20;;;;;;5134090;27;20035;-76
2022/06/08 09:36:42;;;;;;;7.78;1.77;;;33.80;52.50;;;;;;5115462;27;20023;-76
2022/06/08 09:39:12;;;;;;;7.10;1.80;;;33.50;53.10;;;;;;5134056;27;20027;-75
2022/06/08 09:41:47;;;;;;;9.90;2.05;;;33.20;53.50;;;;;;5134414;27;20079;-76
2022/06/08 09:44:27;;;;;;;4.80;1.50;;;33.20;53.20;;;;;;5133770;27;20019;-74
2022/06/08 09:53:12;;;;;;;7.32;1.65;;;33.10;50.80;;;;;;5133652;27;20062;-75
2022/06/08 09:56:05;;;;;;;6.13;1.48;;;32.90;51.10;;;;;;5114669;27;20023;-75
2022/06/08 09:58:52;;;;;;;11.35;1.73;;;33.20;52.40;;;;;;5133253;27;20027;-75
2022/06/08 10:01:29;;;;;;;9.73;1.80;;;33.10;54.60;;;;;;5132812;27;20094;-75
2022/06/08 10:04:23;;;;;;;6.15;1.70;;;32.80;54.00;;;;;;5133498;27;20054;-75
2022/06/08 10:07:19;;;;;;;10.23;1.50;;;32.90;53.80;;;;;;5133303;27;20463;-75
2022/06/08 10:10:07;;;;;;;8.35;1.45;;;32.70;53.90;;;;;;5133489;27;20027;-75
2022/06/08 10:12:49;;;;;;;4.53;1.48;;;32.60;53.90;;;;;;5133342;27;20028;-75
2022/06/08 10:15:28;;;;;;;6.28;1.83;;;32.50;53.40;;;;;;5133010;27;20035;-75
2022/06/08 10:18:16;;;;;;;6.68;1.50;;;32.50;54.00;;;;;;5133400;27;20463;-74
2022/06/08 10:20:55;;;;;;;10.80;1.95;;;32.40;53.90;;;;;;5133479;27;20474;-75
2022/06/08 10:23:42;;;;;;;5.78;1.40;;;32.40;54.50;;;;;;5115331;27;20034;-77
2022/06/08 10:26:16;;;;;;;8.68;2.10;;;32.40;54.40;;;;;;5114979;27;20034;-77
2022/06/08 10:28:59;;;;;;;4.97;1.58;;;32.40;55.20;;;;;;5114990;27;20028;-75
2022/06/08 10:31:44;;;;;;;5.03;1.55;;;32.30;54.80;;;;;;5111876;27;20035;-77
2022/06/08 10:34:20;;;;;;;8.80;1.90;;;32.50;55.30;;;;;;5133784;27;20134;-76
2022/06/08 10:36:55;;;;;;;8.38;1.75;;;32.50;55.90;;;;;;5114894;27;20019;-76
2022/06/08 10:39:23;;;;;;;6.40;1.58;;;32.60;56.10;;;;;;5114886;27;20027;-76
2022/06/08 10:44:53;;;;;;;10.05;1.70;;;32.20;56.30;;;;;;5133819;27;20079;-77
2022/06/08 10:47:30;;;;;;;8.77;1.92;;;32.10;56.00;;;;;;5114303;27;20436;-77
2022/06/08 10:50:21;;;;;;;11.05;1.85;;;32.30;56.80;;;;;;5114302;28;20037;-75
2022/06/08 10:52:49;;;;;;;8.32;1.95;;;32.40;57.10;;;;;;5114394;28;20039;-75
2022/06/08 10:55:18;;;;;;;10.02;1.70;;;32.50;59.30;;;;;;5132891;28;20435;-75
2022/06/08 10:57:49;;;;;;;10.60;1.90;;;32.50;57.40;;;;;;5132920;28;20031;-76
2022/06/08 11:00:58;;;;;;;6.47;1.90;;;32.50;58.90;;;;;;5132470;28;20039;-73
2022/06/08 11:03:33;;;;;;;8.20;1.50;;;32.30;59.10;;;;;;5131276;28;20168;-75
2022/06/08 11:06:00;;;;;;;9.35;1.58;;;32.50;57.00;;;;;;5133275;28;20051;-75
2022/06/08 11:08:51;;;;;;;9.73;2.00;;;32.50;56.30;;;;;;5114264;28;20076;-76
2022/06/08 11:11:39;;;;;;;7.22;1.75;;;32.60;55.20;;;;;;5132693;28;20442;-75
2022/06/08 11:14:26;;;;;;;10.07;1.77;;;32.60;57.60;;;;;;5134404;27;20030;-74
2022/06/08 11:16:56;;;;;;;6.30;1.73;;;32.60;58.20;;;;;;5137168;27;20089;-74
2022/06/08 11:19:24;;;;;;;6.70;1.80;;;32.60;57.10;;;;;;5137154;27;20135;-76
2022/06/08 11:22:00;;;;;;;9.40;2.50;;;32.70;56.50;;;;;;5137169;27;20025;-75
2022/06/08 11:24:49;;;;;;;6.80;2.00;;;32.70;57.40;;;;;;5137037;27;20039;-75
2022/06/08 11:27:21;;;;;;;8.25;1.80;;;32.60;56.10;;;;;;5137520;27;20019;-74
2022/06/08 11:29:53;;;;;;;27.02;3.03;;;32.70;55.80;;;;;;5137540;27;20031;-74
2022/06/08 11:32:27;;;;;;;9.75;2.05;;;32.60;53.80;;;;;;5137320;27;20122;-75
2022/06/08 11:35:09;;;;;;;8.55;2.30;;;32.70;55.40;;;;;;5137443;27;20102;-77
2022/06/08 11:37:46;;;;;;;7.45;1.60;;;32.50;53.30;;;;;;5118320;27;20027;-75
2022/06/08 11:40:19;;;;;;;7.20;1.60;;;32.50;53.10;;;;;;5137418;27;20169;-76
2022/06/08 11:42:56;;;;;;;9.68;2.13;;;32.50;53.80;;;;;;5137086;27;20027;-76
2022/06/08 11:45:28;;;;;;;8.30;1.77;;;32.50;53.90;;;;;;5136511;27;20067;-75
2022/06/08 11:48:16;;;;;;;7.75;2.10;;;32.60;53.60;;;;;;5136403;27;20095;-75
2022/06/08 11:50:58;;;;;;;8.80;2.50;;;32.50;53.90;;;;;;5135996;27;20038;-75
2022/06/08 11:53:35;;;;;;;10.77;2.13;;;32.50;55.10;;;;;;5136576;27;20569;-76
2022/06/08 11:56:30;;;;;;;8.63;2.95;;;32.50;53.30;;;;;;5136599;27;20102;-74
2022/06/08 11:59:03;;;;;;;7.90;2.90;;;32.50;56.40;;;;;;5136495;27;20080;-74
2022/06/08 12:01:42;;;;;;;8.07;2.30;;;32.40;56.30;;;;;;5135928;27;20061;-74
2022/06/08 12:04:23;;;;;;;4.63;1.65;;;32.30;55.90;;;;;;5117876;27;20035;-74
2022/06/08 12:06:52;;;;;;;5.93;1.80;;;32.30;55.30;;;;;;5136602;27;20019;-75
2022/06/08 12:09:21;;;;;;;8.07;2.08;;;32.40;54.60;;;;;;5136644;27;20043;-74
2022/06/08 12:11:53;;;;;;;9.05;2.30;;;32.50;55.10;;;;;;5136400;27;20054;-74
2022/06/08 12:14:30;;;;;;;19.17;4.18;;;32.60;54.80;;;;;;5136896;27;20050;-75
2022/06/08 12:17:03;;;;;;;16.67;3.67;;;32.80;53.70;;;;;;5136829;27;20069;-75
2022/06/08 12:19:40;;;;;;;15.02;4.72;;;32.70;52.20;;;;;;5136651;27;20060;-74
2022/06/08 12:22:11;;;;;;;17.98;9.60;;;32.70;52.90;;;;;;5136818;27;20023;-74
2022/06/08 12:24:37;;;;;;;17.33;11.20;;;32.70;53.40;;;;;;5136395;27;20347;-76
2022/06/08 12:27:20;;;;;;;;;;;32.60;54.60;;;;;;5136830;27;20051;-75
2022/06/08 12:29:54;;;;;;;13.00;8.95;;;32.70;54.00;;;;;;5136300;27;19925;-75
2022/06/08 12:32:25;;;;;;;9.70;6.50;;;32.80;56.00;;;;;;5136091;27;20042;-74
2022/06/08 12:35:07;;;;;;;13.25;6.20;;;32.70;54.30;;;;;;5117539;27;20102;-74
2022/06/08 12:37:37;;;;;;;6.78;4.20;;;32.70;55.30;;;;;;5136574;27;20084;-75
2022/06/08 12:40:26;;;;;;;10.75;2.10;;;32.60;55.10;;;;;;5136305;27;20044;-75
2022/06/08 12:42:58;;;;;;;7.47;1.88;;;32.70;58.80;;;;;;5136449;27;20031;-74
2022/06/08 12:45:34;;;;;;;10.02;2.33;;;32.60;66.40;;;;;;5136465;27;20023;-76
2022/06/08 12:48:44;;;;;;;10.27;2.42;;;32.30;69.50;;;;;;5136058;27;20019;-75
2022/06/08 12:51:25;;;;;;;10.60;2.63;;;32.40;68.20;;;;;;5052035;28;20041;-75
2022/06/08 12:53:51;;;;;;;9.93;2.20;;;32.50;67.10;;;;;;5052607;28;20051;-75
2022/06/08 12:56:18;;;;;;;6.18;1.80;;;32.00;67.00;;;;;;5051788;28;20079;-76
2022/06/08 12:58:46;;;;;;;11.90;1.70;;;32.00;61.40;;;;;;5052200;28;20424;-76
2022/06/08 13:01:14;;;;;;;7.47;1.65;;;32.10;59.00;;;;;;5052425;28;20029;-75
2022/06/08 13:03:41;;;;;;;4.18;1.35;;;32.20;60.90;;;;;;5051869;28;20041;-76
2022/06/08 13:06:08;;;;;;;7.90;1.60;;;32.10;58.00;;;;;;5052230;28;20048;-76
2022/06/08 13:08:34;;;;;;;10.23;2.10;;;32.20;55.60;;;;;;5052267;28;20025;-76
2022/06/08 13:11:05;;;;;;;9.23;2.00;;;32.30;57.20;;;;;;5052587;28;20082;-76
2022/06/08 13:13:36;;;;;;;9.32;2.75;;;32.50;59.50;;;;;;5052431;28;20036;-75
2022/06/08 13:16:11;;;;;;;11.45;2.53;;;32.10;61.20;;;;;;5035507;28;20512;-76
2022/06/08 13:18:37;;;;;;;8.00;2.40;;;32.10;61.30;;;;;;5051981;28;20057;-76
2022/06/08 13:21:07;;;;;;;9.88;2.38;;;32.30;61.90;;;;;;5052407;28;20055;-75
2022/06/08 13:23:36;;;;;;;7.80;1.90;;;32.50;63.30;;;;;;5035219;28;20539;-75
2022/06/08 13:26:02;;;;;;;9.73;2.10;;;32.50;65.50;;;;;;5112220;27;20478;-74
2022/06/08 13:28:32;;;;;;;9.05;2.30;;;32.30;67.30;;;;;;5135881;27;20068;-75
2022/06/08 13:31:00;;;;;;;7.60;2.20;;;32.10;67.60;;;;;;5116764;27;20386;-74
2022/06/08 13:36:23;;;;;;;10.25;2.38;;;32.20;66.30;;;;;;5134995;27;20030;-74
2022/06/08 13:39:06;;;;;;;10.35;2.35;;;32.10;64.90;;;;;;5116656;27;20171;-74
2022/06/08 13:41:33;;;;;;;9.77;2.50;;;31.90;69.90;;;;;;5135423;27;20027;-74
2022/06/08 13:44:00;;;;;;;16.20;2.72;;;31.90;75.10;;;;;;5134782;27;20080;-73
2022/06/08 13:46:27;;;;;;;;;;;31.50;74.60;;;;;;5135048;27;20035;-73
2022/06/08 13:48:55;;;;;;;10.05;2.60;;;31.30;74.40;;;;;;5135369;27;19903;-73
2022/06/08 13:51:22;;;;;;;10.18;2.55;;;31.10;75.70;;;;;;5115588;27;20023;-73
2022/06/08 13:53:49;;;;;;;11.95;2.60;;;31.30;75.30;;;;;;5134429;27;20521;-75
2022/06/08 13:56:18;;;;;;;13.90;2.35;;;31.40;76.50;;;;;;5134666;27;20028;-74
2022/06/08 13:58:44;;;;;;;8.52;2.15;;;31.70;75.90;;;;;;5116018;27;20118;-75
2022/06/08 14:01:27;;;;;;;11.60;2.78;;;31.70;77.80;;;;;;5134326;27;20471;-75